createdAt,value
2018-09-20T00:00:30.839Z,97.20
2018-09-20T00:02:59.900Z,97.30
2018-09-20T00:05:28.930Z,97.40
2018-09-20T00:07:57.945Z,97.60
2018-09-20T00:10:26.970Z,97.60
2018-09-20T00:12:56.034Z,97.60
2018-09-20T00:15:25.145Z,97.60
2018-09-20T00:17:54.158Z,97.50
2018-09-20T00:20:29.952Z,97.40
2018-09-20T00:22:58.968Z,97.60
2018-09-20T00:25:28.001Z,97.40
2018-09-20T00:27:57.117Z,97.60
2018-09-20T00:30:26.133Z,97.70
2018-09-20T00:32:55.865Z,97.80
2018-09-20T00:35:24.895Z,97.80
2018-09-20T00:37:54.076Z,97.70
2018-09-20T00:40:23.212Z,97.70
2018-09-20T00:42:52.318Z,97.80
2018-09-20T00:45:21.641Z,97.90
2018-09-20T00:47:50.680Z,97.90
2018-09-20T00:50:19.787Z,97.90
2018-09-20T00:52:48.864Z,97.80
2018-09-20T00:55:17.899Z,97.80
2018-09-20T00:57:46.931Z,98.00
2018-09-20T01:00:15.995Z,98.10
2018-09-20T01:02:45.108Z,98.20
2018-09-20T01:05:14.271Z,98.30
2018-09-20T01:07:44.301Z,98.30
2018-09-20T01:10:13.453Z,98.30
2018-09-20T01:12:42.488Z,98.30
2018-09-20T01:15:12.090Z,98.20
2018-09-20T01:17:41.154Z,98.20
2018-09-20T01:20:10.382Z,98.00
2018-09-20T01:22:39.392Z,98.00
2018-09-20T01:25:08.876Z,98.00
2018-09-20T01:27:37.998Z,98.20
2018-09-20T01:30:07.361Z,98.20
2018-09-20T01:32:36.602Z,98.30
2018-09-20T01:35:05.741Z,98.50
2018-09-20T01:37:34.789Z,98.60
2018-09-20T01:40:03.899Z,98.60
2018-09-20T01:42:32.940Z,98.70
2018-09-20T01:45:02.038Z,98.80
2018-09-20T01:47:31.127Z,99.00
2018-09-20T01:50:00.192Z,99.00
2018-09-20T01:52:29.214Z,99.00
2018-09-20T01:54:58.266Z,99.50
2018-09-20T01:57:27.326Z,99.90
2018-09-20T01:59:56.420Z,99.90
2018-09-20T02:02:25.465Z,99.90
2018-09-20T02:04:54.558Z,99.70
2018-09-20T02:07:23.700Z,99.70
2018-09-20T02:09:52.818Z,99.70
2018-09-20T02:12:21.908Z,99.90
2018-09-20T02:14:51.056Z,99.70
2018-09-20T02:17:20.155Z,99.60
2018-09-20T02:19:49.473Z,99.60
2018-09-20T02:22:18.539Z,99.60
2018-09-20T02:24:47.613Z,99.40
2018-09-20T02:27:16.886Z,99.70
2018-09-20T02:29:45.986Z,99.70
2018-09-20T02:32:15.028Z,99.80
2018-09-20T02:34:44.140Z,99.90
2018-09-20T02:37:13.234Z,99.90
2018-09-20T02:39:42.316Z,99.90
2018-09-20T02:42:11.385Z,99.90
2018-09-20T02:44:40.520Z,99.90
2018-09-20T02:47:09.591Z,99.90
2018-09-20T02:49:38.612Z,99.90
2018-09-20T02:52:08.122Z,99.90
2018-09-20T02:54:37.186Z,99.90
2018-09-20T02:57:06.228Z,99.80
2018-09-20T02:59:35.261Z,99.90
2018-09-20T03:02:04.296Z,99.80
2018-09-20T03:04:33.357Z,99.70
2018-09-20T03:07:02.399Z,99.80
2018-09-20T03:09:31.463Z,99.70
2018-09-20T03:12:00.503Z,99.70
2018-09-20T03:14:29.567Z,99.60
2018-09-20T03:16:58.657Z,99.70
2018-09-20T03:19:27.663Z,99.60
2018-09-20T03:22:03.560Z,99.50
2018-09-20T03:24:32.688Z,99.40
2018-09-20T03:27:01.806Z,99.50
2018-09-20T03:29:31.056Z,99.40
2018-09-20T03:32:00.092Z,99.50
2018-09-20T03:34:29.095Z,99.60
2018-09-20T03:36:58.310Z,99.60
2018-09-20T03:39:27.304Z,99.80
2018-09-20T03:41:56.304Z,99.80
2018-09-20T03:44:25.339Z,99.60
2018-09-20T03:46:54.737Z,99.60
2018-09-20T03:49:23.776Z,99.70
2018-09-20T03:51:53.003Z,99.70
2018-09-20T03:54:22.090Z,99.70
2018-09-20T03:56:51.182Z,99.40
2018-09-20T03:59:20.187Z,99.50
2018-09-20T04:01:49.235Z,99.70
2018-09-20T04:04:18.244Z,99.70
2018-09-20T04:06:47.290Z,99.80
2018-09-20T04:09:16.303Z,99.90
2018-09-20T04:11:45.400Z,99.90
2018-09-20T04:14:14.455Z,99.90
2018-09-20T04:16:43.509Z,99.90
2018-09-20T04:19:12.606Z,99.90
2018-09-20T04:21:41.762Z,99.90
2018-09-20T04:24:10.782Z,99.90
2018-09-20T04:26:39.808Z,99.90
2018-09-20T04:29:08.865Z,99.90
2018-09-20T04:31:37.930Z,99.80
2018-09-20T04:34:07.814Z,99.90
2018-09-20T04:36:36.846Z,99.90
2018-09-20T04:39:08.493Z,99.90
2018-09-20T04:41:37.574Z,99.90
2018-09-20T04:44:06.587Z,99.90
2018-09-20T04:46:35.606Z,99.90
2018-09-20T04:49:04.844Z,99.90
2018-09-20T04:51:33.856Z,99.90
2018-09-20T04:54:02.902Z,99.90
2018-09-20T04:56:32.120Z,99.90
2018-09-20T04:59:01.290Z,99.90
2018-09-20T05:01:30.287Z,99.90
2018-09-20T05:03:59.387Z,99.90
2018-09-20T05:06:28.412Z,99.90
2018-09-20T05:08:57.407Z,99.90
2018-09-20T05:11:26.516Z,99.90
2018-09-20T05:13:55.725Z,99.90
2018-09-20T05:16:25.359Z,99.90
2018-09-20T05:18:54.393Z,99.90
2018-09-20T05:21:23.486Z,99.90
2018-09-20T05:23:52.506Z,99.90
2018-09-20T05:26:21.545Z,99.90
2018-09-20T05:28:50.568Z,99.90
2018-09-20T05:31:19.580Z,99.90
2018-09-20T05:33:48.683Z,99.90
2018-09-20T05:36:17.671Z,99.90
2018-09-20T05:38:46.702Z,99.90
2018-09-20T05:41:15.735Z,99.90
2018-09-20T05:43:45.469Z,99.90
2018-09-20T05:46:14.494Z,99.90
2018-09-20T05:48:43.533Z,99.90
2018-09-20T05:51:12.793Z,99.90
2018-09-20T05:53:41.841Z,99.90
2018-09-20T05:56:10.870Z,99.90
2018-09-20T05:58:39.912Z,99.90
2018-09-20T06:01:09.355Z,99.90
2018-09-20T06:03:38.460Z,99.90
2018-09-20T06:06:07.458Z,99.90
2018-09-20T06:08:36.515Z,99.90
2018-09-20T06:11:05.605Z,99.90
2018-09-20T06:13:34.948Z,99.90
2018-09-20T06:16:04.367Z,99.90
2018-09-20T06:18:33.483Z,99.90
2018-09-20T06:21:02.525Z,99.90
2018-09-20T06:23:31.827Z,99.90
2018-09-20T06:26:00.862Z,99.90
2018-09-20T06:28:29.894Z,99.90
2018-09-20T06:30:58.933Z,99.90
2018-09-20T06:33:28.042Z,99.90
2018-09-20T06:35:57.101Z,99.90
2018-09-20T06:38:26.421Z,99.90
2018-09-20T06:40:55.643Z,99.90
2018-09-20T06:43:24.921Z,99.90
2018-09-20T06:45:53.975Z,99.90
2018-09-20T06:48:23.027Z,99.90
2018-09-20T06:50:52.433Z,99.90
2018-09-20T06:53:21.507Z,99.80
2018-09-20T06:55:50.546Z,99.60
2018-09-20T06:58:19.582Z,99.60
2018-09-20T07:00:48.803Z,99.50
2018-09-20T07:03:17.901Z,99.40
2018-09-20T07:05:47.124Z,99.30
2018-09-20T07:08:16.171Z,99.40
2018-09-20T07:10:45.291Z,99.40
2018-09-20T07:13:14.361Z,99.40
2018-09-20T07:15:43.461Z,99.20
2018-09-20T07:18:12.636Z,99.00
2018-09-20T07:20:41.717Z,98.70
2018-09-20T07:23:10.791Z,98.60
2018-09-20T07:25:40.102Z,98.60
2018-09-20T07:28:09.228Z,98.30
2018-09-20T07:30:38.343Z,98.10
2018-09-20T07:33:07.823Z,98.30
2018-09-20T07:35:36.920Z,98.40
2018-09-20T07:38:06.474Z,98.20
2018-09-20T07:40:36.072Z,98.00
2018-09-20T07:43:05.316Z,98.00
2018-09-20T07:45:34.353Z,97.70
2018-09-20T07:48:03.448Z,97.50
2018-09-20T07:50:32.483Z,97.30
2018-09-20T07:53:01.573Z,97.20
2018-09-20T07:55:30.621Z,97.10
2018-09-20T07:57:59.664Z,97.10
2018-09-20T08:00:28.699Z,97.00
2018-09-20T08:02:57.798Z,96.70
2018-09-20T08:05:26.893Z,96.60
2018-09-20T08:07:56.011Z,96.40
2018-09-20T08:10:25.040Z,96.30
2018-09-20T08:12:54.416Z,95.80
2018-09-20T08:15:23.616Z,95.50
2018-09-20T08:17:52.687Z,95.50
2018-09-20T08:20:21.704Z,95.40
2018-09-20T08:22:50.751Z,95.20
2018-09-20T08:25:19.850Z,95.20
2018-09-20T08:27:48.900Z,95.10
2018-09-20T08:30:18.111Z,94.70
2018-09-20T08:32:47.140Z,94.50
2018-09-20T08:35:16.137Z,94.20
2018-09-20T08:37:45.475Z,94.00
2018-09-20T08:40:14.973Z,93.80
2018-09-20T08:42:44.146Z,93.50
2018-09-20T08:45:13.170Z,92.90
2018-09-20T08:47:42.281Z,92.70
2018-09-20T08:50:11.631Z,92.30
2018-09-20T08:52:42.042Z,92.00
2018-09-20T08:55:11.218Z,91.40
2018-09-20T08:57:45.423Z,91.10
2018-09-20T09:00:14.480Z,90.50
2018-09-20T09:02:43.477Z,90.10
2018-09-20T09:05:12.570Z,90.10
2018-09-20T09:07:41.860Z,90.40
2018-09-20T09:10:10.894Z,88.40
2018-09-20T09:12:39.902Z,89.70
2018-09-20T09:15:08.959Z,89.20
2018-09-20T09:17:38.007Z,88.10
2018-09-20T09:20:13.438Z,88.10
2018-09-20T09:22:43.693Z,88.20
2018-09-20T09:25:12.772Z,87.10
2018-09-20T09:27:41.877Z,85.80
2018-09-20T09:30:10.876Z,84.90
2018-09-20T09:32:40.006Z,84.50
2018-09-20T09:35:13.100Z,85.10
2018-09-20T09:37:42.339Z,84.90
2018-09-20T09:40:11.419Z,84.90
2018-09-20T09:42:40.459Z,84.30
2018-09-20T09:45:12.179Z,83.00
2018-09-20T09:47:41.570Z,82.30
2018-09-20T09:50:11.223Z,82.70
2018-09-20T09:52:40.370Z,81.00
2018-09-20T09:55:09.397Z,81.50
2018-09-20T09:57:38.435Z,81.60
2018-09-20T10:00:08.168Z,80.80
2018-09-20T10:02:37.491Z,80.30
2018-09-20T10:05:06.816Z,80.00
2018-09-20T10:07:35.864Z,78.80
2018-09-20T10:10:04.979Z,78.90
2018-09-20T10:12:33.986Z,79.20
2018-09-20T10:15:03.231Z,78.80
2018-09-20T10:17:32.241Z,78.40
2018-09-20T10:20:01.489Z,77.10
2018-09-20T10:22:30.645Z,76.60
2018-09-20T10:24:59.679Z,77.10
2018-09-20T10:27:28.741Z,75.40
2018-09-20T10:29:57.728Z,74.50
2018-09-20T10:32:26.834Z,75.90
2018-09-20T10:34:55.819Z,74.30
2018-09-20T10:37:24.876Z,72.60
2018-09-20T10:39:53.953Z,70.40
2018-09-20T10:42:23.235Z,69.70
2018-09-20T10:44:52.681Z,72.90
2018-09-20T10:47:21.715Z,71.10
2018-09-20T10:49:50.867Z,69.20
2018-09-20T10:52:19.957Z,68.70
2018-09-20T10:54:49.089Z,68.80
2018-09-20T10:57:18.154Z,67.60
2018-09-20T10:59:47.761Z,65.40
2018-09-20T11:02:17.354Z,61.80
2018-09-20T11:04:47.311Z,58.70
2018-09-20T11:07:16.993Z,53.70
2018-09-20T11:09:46.651Z,50.60
2018-09-20T11:12:16.214Z,46.90
2018-09-20T11:14:45.790Z,44.60
2018-09-20T11:17:15.497Z,45.10
2018-09-20T11:19:45.399Z,44.50
2018-09-20T11:22:15.017Z,44.50
2018-09-20T11:24:44.657Z,43.20
2018-09-20T11:27:14.235Z,39.80
2018-09-20T11:29:43.840Z,39.30
2018-09-20T11:32:13.528Z,40.70
2018-09-20T11:34:43.139Z,39.70
2018-09-20T11:37:12.751Z,38.10
2018-09-20T11:39:42.555Z,39.10
2018-09-20T11:42:12.223Z,38.10
2018-09-20T11:44:41.832Z,37.70
2018-09-20T11:47:11.859Z,36.10
2018-09-20T11:49:41.532Z,35.60
2018-09-20T11:52:11.217Z,36.40
2018-09-20T11:54:42.115Z,35.70
2018-09-20T11:57:11.922Z,38.60
2018-09-20T11:59:41.741Z,38.50
2018-09-20T12:02:11.411Z,39.20
2018-09-20T12:04:40.961Z,39.20
2018-09-20T12:07:10.614Z,37.40
2018-09-20T12:09:40.136Z,36.10
2018-09-20T12:12:09.750Z,35.40
2018-09-20T12:14:39.407Z,34.50
2018-09-20T12:17:09.211Z,35.40
2018-09-20T12:19:38.789Z,33.70
2018-09-20T12:22:10.376Z,36.00
2018-09-20T12:24:40.093Z,34.90
2018-09-20T12:27:09.769Z,36.10
2018-09-20T12:29:39.575Z,36.00
2018-09-20T12:32:09.192Z,35.60
2018-09-20T12:34:39.231Z,34.20
2018-09-20T12:37:08.795Z,34.80
2018-09-20T12:39:38.393Z,33.40
2018-09-20T12:42:07.966Z,32.60
2018-09-20T12:44:43.974Z,30.80
2018-09-20T12:47:13.545Z,29.60
2018-09-20T12:49:43.137Z,30.20
2018-09-20T12:52:12.735Z,31.00
2018-09-20T12:54:42.364Z,33.50
2018-09-20T12:57:12.093Z,33.50
2018-09-20T12:59:41.764Z,33.40
2018-09-20T13:02:11.586Z,34.50
2018-09-20T13:04:41.341Z,33.90
2018-09-20T13:07:11.009Z,33.60
2018-09-20T13:09:40.742Z,32.60
2018-09-20T13:12:10.325Z,32.00
2018-09-20T13:14:39.943Z,31.50
2018-09-20T13:17:09.661Z,30.40
2018-09-20T13:19:39.269Z,31.10
2018-09-20T13:22:09.372Z,31.90
2018-09-20T13:24:38.997Z,31.80
2018-09-20T13:27:08.936Z,32.50
2018-09-20T13:29:38.778Z,34.80
2018-09-20T13:32:08.366Z,36.20
2018-09-20T13:34:38.190Z,34.80
2018-09-20T13:37:41.911Z,32.90
2018-09-20T13:40:11.855Z,32.30
2018-09-20T13:42:42.177Z,33.70
2018-09-20T13:45:11.993Z,35.40
2018-09-20T13:47:48.228Z,34.00
2018-09-20T13:50:18.227Z,33.60
2018-09-20T13:52:48.049Z,32.00
2018-09-20T13:55:17.337Z,31.60
2018-09-20T13:57:47.426Z,30.40
2018-09-20T14:00:16.955Z,29.40
2018-09-20T14:02:46.557Z,29.10
2018-09-20T14:05:16.302Z,29.60
2018-09-20T14:07:45.693Z,30.20
2018-09-20T14:10:15.260Z,30.50
2018-09-20T14:12:44.699Z,31.90
2018-09-20T14:15:14.076Z,32.10
2018-09-20T14:17:43.410Z,31.80
2018-09-20T14:20:13.066Z,32.30
2018-09-20T14:22:42.408Z,32.00
2018-09-20T14:25:11.698Z,33.60
2018-09-20T14:27:41.112Z,31.80
2018-09-20T14:30:10.497Z,30.80
2018-09-20T14:32:39.811Z,32.30
2018-09-20T14:35:09.589Z,32.60
2018-09-20T14:37:39.136Z,32.60
2018-09-20T14:40:08.665Z,32.30
2018-09-20T14:42:38.088Z,32.20
2018-09-20T14:45:07.491Z,30.30
2018-09-20T14:47:36.897Z,29.80
2018-09-20T14:50:06.714Z,31.20
2018-09-20T14:52:36.109Z,31.50
2018-09-20T14:55:05.990Z,32.40
2018-09-20T14:57:35.352Z,31.90
2018-09-20T15:00:04.758Z,31.40
2018-09-20T15:02:34.075Z,30.50
2018-09-20T15:05:03.389Z,30.30
2018-09-20T15:07:32.735Z,30.00
2018-09-20T15:10:02.068Z,30.20
2018-09-20T15:12:31.501Z,29.90
2018-09-20T15:15:00.874Z,29.90
2018-09-20T15:17:30.378Z,30.00
2018-09-20T15:19:59.755Z,30.70
2018-09-20T15:22:29.172Z,30.50
2018-09-20T15:24:58.538Z,30.70
2018-09-20T15:27:27.827Z,29.80
2018-09-20T15:29:57.162Z,29.40
2018-09-20T15:32:26.600Z,30.50
2018-09-20T15:34:56.255Z,31.00
2018-09-20T15:37:25.869Z,31.90
2018-09-20T15:40:02.309Z,32.80
2018-09-20T15:42:32.145Z,34.20
2018-09-20T15:45:01.764Z,34.20
2018-09-20T15:47:31.506Z,33.40
2018-09-20T15:50:01.336Z,32.90
2018-09-20T15:52:30.934Z,34.50
2018-09-20T15:55:00.633Z,33.30
2018-09-20T15:57:30.239Z,32.50
2018-09-20T15:59:59.553Z,31.60
2018-09-20T16:02:29.061Z,30.30
2018-09-20T16:05:04.494Z,29.90
2018-09-20T16:07:35.020Z,30.70
2018-09-20T16:10:04.990Z,30.90
2018-09-20T16:12:34.614Z,32.60
2018-09-20T16:15:04.337Z,35.60
2018-09-20T16:17:34.314Z,37.30
2018-09-20T16:20:03.935Z,39.40
2018-09-20T16:22:33.486Z,41.10
2018-09-20T16:25:03.116Z,42.50
2018-09-20T16:27:32.943Z,43.60
2018-09-20T16:30:16.852Z,44.50
2018-09-20T16:33:35.277Z,44.90
2018-09-20T16:36:12.313Z,45.70
2018-09-20T16:38:46.476Z,46.80
2018-09-20T16:41:19.015Z,47.10
2018-09-20T16:43:48.574Z,47.70
2018-09-20T16:46:18.212Z,48.00
2018-09-20T16:48:48.089Z,48.30
2018-09-20T16:51:17.649Z,49.10
2018-09-20T16:53:47.318Z,48.90
2018-09-20T16:56:16.933Z,49.20
2018-09-20T16:58:49.193Z,50.00
2018-09-20T17:01:19.708Z,50.80
2018-09-20T17:03:48.932Z,51.40
2018-09-20T17:06:19.133Z,51.70
2018-09-20T17:08:49.007Z,52.00
2018-09-20T17:11:18.267Z,52.10
2018-09-20T17:13:47.450Z,52.90
2018-09-20T17:16:16.556Z,53.10
2018-09-20T17:18:45.760Z,53.70
2018-09-20T17:21:15.036Z,54.20
2018-09-20T17:23:44.149Z,54.50
2018-09-20T17:26:13.562Z,54.70
2018-09-20T17:28:42.862Z,55.10
2018-09-20T17:31:11.882Z,55.70
2018-09-20T17:33:40.905Z,55.70
2018-09-20T17:36:10.165Z,56.10
2018-09-20T17:38:39.953Z,56.50
2018-09-20T17:41:14.617Z,56.60
2018-09-20T17:43:50.057Z,56.80
2018-09-20T17:46:19.134Z,57.10
2018-09-20T17:48:48.184Z,57.30
2018-09-20T17:51:17.972Z,57.60
2018-09-20T17:53:47.476Z,58.20
2018-09-20T17:56:17.146Z,58.50
2018-09-20T17:58:46.726Z,59.00
2018-09-20T18:01:15.889Z,59.50
2018-09-20T18:03:44.903Z,59.90
2018-09-20T18:06:13.992Z,60.90
2018-09-20T18:08:43.063Z,61.30
2018-09-20T18:11:12.134Z,61.80
2018-09-20T18:13:41.352Z,61.60
2018-09-20T18:16:10.352Z,62.90
2018-09-20T18:18:39.405Z,63.50
2018-09-20T18:21:08.828Z,64.60
2018-09-20T18:23:37.894Z,64.30
2018-09-20T18:26:06.959Z,64.50
2018-09-20T18:28:36.020Z,64.90
2018-09-20T18:31:05.084Z,65.10
2018-09-20T18:33:34.132Z,65.60
2018-09-20T18:36:03.586Z,65.90
2018-09-20T18:38:32.588Z,66.20
2018-09-20T18:41:01.655Z,66.30
2018-09-20T18:43:30.719Z,67.30
2018-09-20T18:45:59.761Z,66.90
2018-09-20T18:48:28.864Z,67.10
2018-09-20T18:50:57.966Z,67.30
2018-09-20T18:53:27.104Z,67.80
2018-09-20T18:55:56.128Z,69.70
2018-09-20T18:58:25.300Z,69.40
2018-09-20T19:00:54.339Z,70.40
2018-09-20T19:03:23.973Z,71.10
2018-09-20T19:05:53.077Z,71.50
2018-09-20T19:08:22.130Z,72.00
2018-09-20T19:10:51.365Z,72.90
2018-09-20T19:13:20.393Z,73.50
2018-09-20T19:15:49.510Z,73.80
2018-09-20T19:18:18.580Z,74.20
2018-09-20T19:20:47.692Z,75.20
2018-09-20T19:23:16.739Z,75.50
2018-09-20T19:25:45.808Z,76.10
2018-09-20T19:28:14.912Z,76.60
2018-09-20T19:30:43.947Z,77.10
2018-09-20T19:33:13.068Z,77.10
2018-09-20T19:35:42.097Z,77.40
2018-09-20T19:38:11.203Z,77.60
2018-09-20T19:40:40.930Z,77.70
2018-09-20T19:43:10.731Z,77.90
2018-09-20T19:45:39.808Z,78.20
2018-09-20T19:48:08.907Z,78.10
2018-09-20T19:50:38.199Z,78.40
2018-09-20T19:53:07.202Z,78.70
2018-09-20T19:55:36.327Z,79.20
2018-09-20T19:58:05.356Z,79.90
2018-09-20T20:00:34.453Z,80.20
2018-09-20T20:03:03.671Z,80.50
2018-09-20T20:05:32.696Z,80.50
2018-09-20T20:08:01.818Z,80.70
2018-09-20T20:10:30.858Z,81.20
2018-09-20T20:12:59.895Z,81.50
2018-09-20T20:15:28.934Z,82.00
2018-09-20T20:17:57.986Z,82.30
2018-09-20T20:20:27.098Z,82.30
2018-09-20T20:22:56.114Z,82.90
2018-09-20T20:25:25.181Z,82.80
2018-09-20T20:27:54.220Z,83.10
2018-09-20T20:30:23.294Z,83.20
2018-09-20T20:32:52.419Z,83.60
2018-09-20T20:35:21.433Z,83.90
2018-09-20T20:37:50.496Z,84.50
2018-09-20T20:40:19.657Z,85.80
2018-09-20T20:42:48.830Z,86.30
2018-09-20T20:45:17.849Z,86.90
2018-09-20T20:47:46.881Z,87.20
2018-09-20T20:50:16.015Z,87.30
2018-09-20T20:52:45.058Z,87.50
2018-09-20T20:55:14.091Z,87.70
2018-09-20T20:57:43.085Z,88.00
2018-09-20T21:00:12.152Z,88.10
2018-09-20T21:02:41.152Z,88.90
2018-09-20T21:05:10.214Z,90.30
2018-09-20T21:07:39.240Z,90.60
2018-09-20T21:10:08.317Z,90.60
2018-09-20T21:12:37.352Z,89.70
2018-09-20T21:15:06.819Z,89.20
2018-09-20T21:17:36.013Z,89.10
2018-09-20T21:20:05.238Z,89.00
2018-09-20T21:22:34.290Z,89.70
2018-09-20T21:25:03.664Z,88.90
2018-09-20T21:27:32.733Z,89.40
2018-09-20T21:30:01.855Z,89.90
2018-09-20T21:32:30.928Z,89.80
2018-09-20T21:34:59.957Z,89.70
2018-09-20T21:37:28.980Z,89.90
2018-09-20T21:39:58.054Z,90.00
2018-09-20T21:42:27.132Z,90.10
2018-09-20T21:44:56.287Z,90.20
2018-09-20T21:47:25.285Z,90.30
2018-09-20T21:49:54.333Z,90.30
2018-09-20T21:52:23.376Z,90.50
2018-09-20T21:54:52.485Z,90.50
2018-09-20T21:57:21.517Z,90.60
2018-09-20T21:59:50.562Z,90.70
2018-09-20T22:02:25.047Z,90.60
2018-09-20T22:04:54.070Z,90.70
2018-09-20T22:07:23.102Z,90.70
2018-09-20T22:09:52.234Z,90.70
2018-09-20T22:12:21.261Z,90.90
2018-09-20T22:14:50.269Z,91.10
2018-09-20T22:17:19.486Z,91.20
2018-09-20T22:19:48.641Z,91.20
2018-09-20T22:22:17.639Z,91.40
2018-09-20T22:24:46.689Z,91.50
2018-09-20T22:27:15.771Z,91.80
2018-09-20T22:29:44.839Z,92.00
2018-09-20T22:32:13.881Z,92.10
2018-09-20T22:34:43.159Z,92.30
2018-09-20T22:37:12.277Z,92.30
2018-09-20T22:39:41.355Z,92.40
2018-09-20T22:42:10.573Z,92.40
2018-09-20T22:44:39.653Z,92.60
2018-09-20T22:47:08.664Z,92.70
2018-09-20T22:49:37.734Z,92.90
2018-09-20T22:52:06.747Z,92.80
2018-09-20T22:54:36.121Z,92.80
2018-09-20T22:57:05.346Z,92.90
2018-09-20T22:59:34.464Z,93.00
2018-09-20T23:02:03.827Z,93.10
2018-09-20T23:04:32.836Z,93.20
2018-09-20T23:07:01.884Z,93.30
2018-09-20T23:09:30.912Z,93.40
2018-09-20T23:11:59.988Z,93.50
2018-09-20T23:14:29.015Z,93.50
2018-09-20T23:16:58.056Z,93.60
2018-09-20T23:19:27.116Z,93.70
2018-09-20T23:21:56.148Z,93.80
2018-09-20T23:24:25.181Z,94.00
2018-09-20T23:26:54.396Z,93.80
2018-09-20T23:29:23.458Z,93.60
2018-09-20T23:31:52.567Z,93.80
2018-09-20T23:34:21.583Z,94.00
2018-09-20T23:36:50.667Z,93.90
2018-09-20T23:39:19.795Z,94.10
2018-09-20T23:41:48.857Z,94.40
2018-09-20T23:44:17.851Z,94.60
2018-09-20T23:46:46.889Z,94.80
2018-09-20T23:49:15.912Z,94.90
2018-09-20T23:51:45.187Z,95.00
2018-09-20T23:54:14.363Z,95.50
2018-09-20T23:56:43.370Z,95.10
2018-09-20T23:59:12.441Z,95.60
